sensor_id;sensor_type;location;lat;lon;timestamp;pressure;altitude;pressure_sealevel;temperature;humidity
10978;BME280;5542;48.272;10.794;2023-05-09T00:01:18;96068.31;;;12.59;76.26
10978;BME280;5542;48.272;10.794;2023-05-09T00:03:45;96073.78;;;12.57;76.08
10978;BME280;5542;48.272;10.794;2023-05-09T00:06:11;96073.94;;;12.50;76.21
10978;BME280;5542;48.272;10.794;2023-05-09T00:08:39;96072.53;;;12.48;76.24
10978;BME280;5542;48.272;10.794;2023-05-09T00:11:07;96070.16;;;12.46;76.28
10978;BME280;5542;48.272;10.794;2023-05-09T00:13:34;96060.06;;;12.43;76.46
10978;BME280;5542;48.272;10.794;2023-05-09T00:16:01;96069.59;;;12.44;76.34
10978;BME280;5542;48.272;10.794;2023-05-09T00:18:30;96061.78;;;12.49;76.00
10978;BME280;5542;48.272;10.794;2023-05-09T00:20:58;96060.53;;;12.40;76.10
10978;BME280;5542;48.272;10.794;2023-05-09T00:23:26;96051.91;;;12.33;76.37
10978;BME280;5542;48.272;10.794;2023-05-09T00:25:53;96052.28;;;12.25;76.53
10978;BME280;5542;48.272;10.794;2023-05-09T00:28:21;96053.19;;;12.19;76.75
10978;BME280;5542;48.272;10.794;2023-05-09T00:30:47;96054.91;;;12.13;76.82
10978;BME280;5542;48.272;10.794;2023-05-09T00:33:14;96049.66;;;12.13;77.04
10978;BME280;5542;48.272;10.794;2023-05-09T00:35:40;96044.72;;;12.17;76.74
10978;BME280;5542;48.272;10.794;2023-05-09T00:38:07;96038.41;;;12.18;76.61
10978;BME280;5542;48.272;10.794;2023-05-09T00:40:33;96041.75;;;12.13;76.55
10978;BME280;5542;48.272;10.794;2023-05-09T00:43:00;96029.47;;;12.07;76.65
10978;BME280;5542;48.272;10.794;2023-05-09T00:45:28;96038.19;;;12.08;76.47
10978;BME280;5542;48.272;10.794;2023-05-09T00:47:55;96022.25;;;12.02;76.74
10978;BME280;5542;48.272;10.794;2023-05-09T00:50:22;96028.66;;;11.95;76.66
10978;BME280;5542;48.272;10.794;2023-05-09T00:52:49;96014.22;;;11.86;76.64
10978;BME280;5542;48.272;10.794;2023-05-09T00:55:16;96013.03;;;11.82;76.97
10978;BME280;5542;48.272;10.794;2023-05-09T00:57:43;96014.56;;;11.77;77.06
10978;BME280;5542;48.272;10.794;2023-05-09T01:00:10;96009.50;;;11.76;77.10
10978;BME280;5542;48.272;10.794;2023-05-09T01:02:40;95999.19;;;11.74;77.00
10978;BME280;5542;48.272;10.794;2023-05-09T01:05:07;95995.66;;;11.69;76.92
10978;BME280;5542;48.272;10.794;2023-05-09T01:07:38;96000.56;;;11.65;76.94
10978;BME280;5542;48.272;10.794;2023-05-09T01:10:15;95990.94;;;11.59;77.19
10978;BME280;5542;48.272;10.794;2023-05-09T01:12:49;95992.88;;;11.52;77.49
10978;BME280;5542;48.272;10.794;2023-05-09T01:15:23;95995.97;;;11.49;77.63
10978;BME280;5542;48.272;10.794;2023-05-09T01:17:57;95985.63;;;11.47;77.54
10978;BME280;5542;48.272;10.794;2023-05-09T01:20:29;95974.31;;;11.47;77.55
10978;BME280;5542;48.272;10.794;2023-05-09T01:23:08;95974.19;;;11.42;77.76
10978;BME280;5542;48.272;10.794;2023-05-09T01:25:48;95970.31;;;11.44;77.59
10978;BME280;5542;48.272;10.794;2023-05-09T01:28:43;95974.53;;;11.45;77.68
10978;BME280;5542;48.272;10.794;2023-05-09T01:31:25;95972.72;;;11.46;77.63
10978;BME280;5542;48.272;10.794;2023-05-09T01:33:54;95973.38;;;11.41;77.52
10978;BME280;5542;48.272;10.794;2023-05-09T01:36:23;95972.47;;;11.36;77.76
10978;BME280;5542;48.272;10.794;2023-05-09T01:38:53;95969.84;;;11.36;77.75
10978;BME280;5542;48.272;10.794;2023-05-09T01:41:22;95969.03;;;11.35;77.59
10978;BME280;5542;48.272;10.794;2023-05-09T01:43:50;95964.34;;;11.37;77.84
10978;BME280;5542;48.272;10.794;2023-05-09T01:46:18;95965.59;;;11.35;78.00
10978;BME280;5542;48.272;10.794;2023-05-09T01:48:48;95965.81;;;11.33;77.86
10978;BME280;5542;48.272;10.794;2023-05-09T01:51:16;95962.63;;;11.31;78.10
10978;BME280;5542;48.272;10.794;2023-05-09T01:53:46;95962.63;;;11.31;77.93
10978;BME280;5542;48.272;10.794;2023-05-09T01:56:13;95967.53;;;11.27;78.29
10978;BME280;5542;48.272;10.794;2023-05-09T01:58:41;95958.22;;;11.25;78.58
10978;BME280;5542;48.272;10.794;2023-05-09T02:01:10;95962.13;;;11.22;78.57
10978;BME280;5542;48.272;10.794;2023-05-09T02:03:39;95961.56;;;11.20;78.83
10978;BME280;5542;48.272;10.794;2023-05-09T02:06:08;95951.38;;;11.12;78.83
10978;BME280;5542;48.272;10.794;2023-05-09T02:08:36;95964.16;;;11.09;79.15
10978;BME280;5542;48.272;10.794;2023-05-09T02:11:03;95960.97;;;11.07;79.38
10978;BME280;5542;48.272;10.794;2023-05-09T02:13:30;95966.66;;;11.03;79.51
10978;BME280;5542;48.272;10.794;2023-05-09T02:15:56;95964.03;;;11.03;79.65
10978;BME280;5542;48.272;10.794;2023-05-09T02:18:23;95962.44;;;11.02;79.44
10978;BME280;5542;48.272;10.794;2023-05-09T02:20:50;95965.88;;;11.03;79.21
10978;BME280;5542;48.272;10.794;2023-05-09T02:23:18;95962.19;;;10.92;79.54
10978;BME280;5542;48.272;10.794;2023-05-09T02:25:45;95965.03;;;10.91;79.80
10978;BME280;5542;48.272;10.794;2023-05-09T02:28:12;95964.47;;;10.89;79.97
10978;BME280;5542;48.272;10.794;2023-05-09T02:30:41;95955.97;;;10.87;80.16
10978;BME280;5542;48.272;10.794;2023-05-09T02:33:10;95961.47;;;10.85;80.31
10978;BME280;5542;48.272;10.794;2023-05-09T02:35:38;95962.25;;;10.86;80.43
10978;BME280;5542;48.272;10.794;2023-05-09T02:38:07;95957.78;;;10.86;80.32
10978;BME280;5542;48.272;10.794;2023-05-09T02:40:38;95960.44;;;10.86;80.33
10978;BME280;5542;48.272;10.794;2023-05-09T02:43:04;95963.06;;;10.86;80.13
10978;BME280;5542;48.272;10.794;2023-05-09T02:45:31;95960.44;;;10.86;80.14
10978;BME280;5542;48.272;10.794;2023-05-09T02:47:58;95966.16;;;10.83;79.83
10978;BME280;5542;48.272;10.794;2023-05-09T02:50:24;95962.78;;;10.76;79.64
10978;BME280;5542;48.272;10.794;2023-05-09T02:52:51;95963.84;;;10.75;80.06
10978;BME280;5542;48.272;10.794;2023-05-09T02:55:18;95967.13;;;10.70;79.98
10978;BME280;5542;48.272;10.794;2023-05-09T02:57:46;95959.09;;;10.65;79.99
10978;BME280;5542;48.272;10.794;2023-05-09T03:00:13;95957.03;;;10.67;79.72
10978;BME280;5542;48.272;10.794;2023-05-09T03:02:42;95958.50;;;10.63;79.89
10978;BME280;5542;48.272;10.794;2023-05-09T03:05:09;95950.84;;;10.62;79.85
10978;BME280;5542;48.272;10.794;2023-05-09T03:07:35;95950.72;;;10.57;79.93
10978;BME280;5542;48.272;10.794;2023-05-09T03:10:02;95957.56;;;10.58;79.90
10978;BME280;5542;48.272;10.794;2023-05-09T03:12:29;95955.97;;;10.57;79.85
10978;BME280;5542;48.272;10.794;2023-05-09T03:14:57;95957.44;;;10.52;79.82
10978;BME280;5542;48.272;10.794;2023-05-09T03:17:23;95958.91;;;10.48;79.91
10978;BME280;5542;48.272;10.794;2023-05-09T03:19:50;95960.41;;;10.44;79.83
10978;BME280;5542;48.272;10.794;2023-05-09T03:22:16;95951.91;;;10.42;79.93
10978;BME280;5542;48.272;10.794;2023-05-09T03:24:43;95959.44;;;10.39;80.03
10978;BME280;5542;48.272;10.794;2023-05-09T03:27:09;95950.53;;;10.40;80.04
10978;BME280;5542;48.272;10.794;2023-05-09T03:29:36;95946.06;;;10.40;80.00
10978;BME280;5542;48.272;10.794;2023-05-09T03:32:04;95946.66;;;10.42;79.73
10978;BME280;5542;48.272;10.794;2023-05-09T03:34:31;95943.34;;;10.47;79.58
10978;BME280;5542;48.272;10.794;2023-05-09T03:36:58;95940.50;;;10.48;79.23
10978;BME280;5542;48.272;10.794;2023-05-09T03:39:24;95943.09;;;10.37;79.35
10978;BME280;5542;48.272;10.794;2023-05-09T03:41:51;95945.78;;;10.30;79.55
10978;BME280;5542;48.272;10.794;2023-05-09T03:44:17;95935.84;;;10.32;79.59
10978;BME280;5542;48.272;10.794;2023-05-09T03:46:44;95944.78;;;10.31;79.72
10978;BME280;5542;48.272;10.794;2023-05-09T03:49:12;95936.53;;;10.28;79.61
10978;BME280;5542;48.272;10.794;2023-05-09T03:51:38;95937.75;;;10.25;79.83
10978;BME280;5542;48.272;10.794;2023-05-09T03:54:05;95938.78;;;10.24;79.82
10978;BME280;5542;48.272;10.794;2023-05-09T03:56:32;95939.72;;;10.30;79.66
10978;BME280;5542;48.272;10.794;2023-05-09T03:58:58;95939.94;;;10.28;79.73
10978;BME280;5542;48.272;10.794;2023-05-09T04:01:25;95937.31;;;10.28;79.67
10978;BME280;5542;48.272;10.794;2023-05-09T04:03:52;95943.00;;;10.25;79.75
10978;BME280;5542;48.272;10.794;2023-05-09T04:06:20;95944.03;;;10.24;79.65
10978;BME280;5542;48.272;10.794;2023-05-09T04:08:46;95945.47;;;10.20;79.48
10978;BME280;5542;48.272;10.794;2023-05-09T04:11:13;95947.94;;;10.15;79.75
10978;BME280;5542;48.272;10.794;2023-05-09T04:13:39;95941.53;;;10.11;80.21
10978;BME280;5542;48.272;10.794;2023-05-09T04:16:06;95951.59;;;10.14;80.31
10978;BME280;5542;48.272;10.794;2023-05-09T04:18:33;95948.75;;;10.15;80.33
10978;BME280;5542;48.272;10.794;2023-05-09T04:20:59;95940.22;;;10.20;80.36
10978;BME280;5542;48.272;10.794;2023-05-09T04:23:27;95942.41;;;10.23;80.34
10978;BME280;5542;48.272;10.794;2023-05-09T04:25:53;95929.88;;;10.25;80.14
10978;BME280;5542;48.272;10.794;2023-05-09T04:28:21;95929.88;;;10.25;79.99
10978;BME280;5542;48.272;10.794;2023-05-09T04:30:47;95928.69;;;10.21;80.19
10978;BME280;5542;48.272;10.794;2023-05-09T04:33:14;95927.16;;;9.95;81.98
10978;BME280;5542;48.272;10.794;2023-05-09T04:35:41;95922.13;;;9.75;83.20
10978;BME280;5542;48.272;10.794;2023-05-09T04:38:07;95925.16;;;9.72;83.90
10978;BME280;5542;48.272;10.794;2023-05-09T04:40:35;95928.75;;;9.78;84.11
10978;BME280;5542;48.272;10.794;2023-05-09T04:43:02;95926.28;;;9.83;84.17
10978;BME280;5542;48.272;10.794;2023-05-09T04:45:29;95929.88;;;9.88;84.29
10978;BME280;5542;48.272;10.794;2023-05-09T04:47:56;95926.94;;;9.96;83.99
10978;BME280;5542;48.272;10.794;2023-05-09T04:50:22;95920.22;;;10.00;83.65
10978;BME280;5542;48.272;10.794;2023-05-09T04:52:49;95919.34;;;10.07;83.28
10978;BME280;5542;48.272;10.794;2023-05-09T04:55:16;95920.03;;;10.02;83.23
10978;BME280;5542;48.272;10.794;2023-05-09T04:57:43;95922.97;;;10.06;83.05
10978;BME280;5542;48.272;10.794;2023-05-09T05:00:11;95925.94;;;9.97;83.33
10978;BME280;5542;48.272;10.794;2023-05-09T05:02:39;95922.97;;;10.06;83.72
10978;BME280;5542;48.272;10.794;2023-05-09T05:05:06;95918.53;;;10.06;83.47
10978;BME280;5542;48.272;10.794;2023-05-09T05:07:33;95907.22;;;10.06;83.23
10978;BME280;5542;48.272;10.794;2023-05-09T05:09:59;95906.41;;;10.05;83.59
10978;BME280;5542;48.272;10.794;2023-05-09T05:12:26;95915.63;;;9.96;84.05
10978;BME280;5542;48.272;10.794;2023-05-09T05:14:53;95917.72;;;10.06;84.36
10978;BME280;5542;48.272;10.794;2023-05-09T05:17:20;95912.56;;;10.17;84.33
10978;BME280;5542;48.272;10.794;2023-05-09T05:19:48;95919.34;;;10.25;83.69
10978;BME280;5542;48.272;10.794;2023-05-09T05:22:15;95908.09;;;10.36;83.16
10978;BME280;5542;48.272;10.794;2023-05-09T05:24:42;95917.16;;;10.40;82.81
10978;BME280;5542;48.272;10.794;2023-05-09T05:27:08;95916.56;;;10.38;82.21
10978;BME280;5542;48.272;10.794;2023-05-09T05:29:35;95925.09;;;10.34;81.85
10978;BME280;5542;48.272;10.794;2023-05-09T05:32:03;95921.31;;;10.11;83.53
10978;BME280;5542;48.272;10.794;2023-05-09T05:34:30;95919.19;;;10.20;82.82
10978;BME280;5542;48.272;10.794;2023-05-09T05:36:56;95927.66;;;10.22;82.81
10978;BME280;5542;48.272;10.794;2023-05-09T05:39:23;95928.19;;;10.12;83.52
10978;BME280;5542;48.272;10.794;2023-05-09T05:41:49;95926.06;;;10.03;84.21
10978;BME280;5542;48.272;10.794;2023-05-09T05:44:17;95928.97;;;10.13;84.01
10978;BME280;5542;48.272;10.794;2023-05-09T05:46:43;95928.97;;;10.13;83.94
10978;BME280;5542;48.272;10.794;2023-05-09T05:49:11;95927.66;;;10.04;85.16
10978;BME280;5542;48.272;10.794;2023-05-09T05:51:37;95934.16;;;10.19;85.66
10978;BME280;5542;48.272;10.794;2023-05-09T05:54:04;95932.78;;;10.35;84.87
10978;BME280;5542;48.272;10.794;2023-05-09T05:56:31;95927.34;;;10.48;85.27
10978;BME280;5542;48.272;10.794;2023-05-09T05:58:57;95923.84;;;10.55;84.19
10978;BME280;5542;48.272;10.794;2023-05-09T06:01:24;95920.97;;;10.56;84.95
10978;BME280;5542;48.272;10.794;2023-05-09T06:03:50;95921.22;;;10.55;84.41
10978;BME280;5542;48.272;10.794;2023-05-09T06:06:20;95912.56;;;10.66;83.45
10978;BME280;5542;48.272;10.794;2023-05-09T06:08:47;95912.88;;;10.58;84.38
10978;BME280;5542;48.272;10.794;2023-05-09T06:11:14;95910.97;;;10.65;84.59
10978;BME280;5542;48.272;10.794;2023-05-09T06:13:41;95905.97;;;10.75;82.97
10978;BME280;5542;48.272;10.794;2023-05-09T06:16:08;95910.22;;;10.88;81.96
10978;BME280;5542;48.272;10.794;2023-05-09T06:18:34;95898.00;;;10.93;82.91
10978;BME280;5542;48.272;10.794;2023-05-09T06:21:01;95896.53;;;10.97;82.12
10978;BME280;5542;48.272;10.794;2023-05-09T06:23:29;95898.00;;;10.93;81.22
10978;BME280;5542;48.272;10.794;2023-05-09T06:25:56;95890.47;;;11.09;80.39
10978;BME280;5542;48.272;10.794;2023-05-09T06:28:23;95886.78;;;11.10;78.55
10978;BME280;5542;48.272;10.794;2023-05-09T06:30:49;95883.38;;;10.97;79.14
10978;BME280;5542;48.272;10.794;2023-05-09T06:33:16;95884.06;;;11.16;78.07
10978;BME280;5542;48.272;10.794;2023-05-09T06:35:42;95890.81;;;11.12;78.14
10978;BME280;5542;48.272;10.794;2023-05-09T06:38:09;95873.06;;;11.19;77.82
10978;BME280;5542;48.272;10.794;2023-05-09T06:40:37;95872.06;;;11.20;77.34
10978;BME280;5542;48.272;10.794;2023-05-09T06:43:04;95873.53;;;11.05;77.84
10978;BME280;5542;48.272;10.794;2023-05-09T06:45:30;95869.66;;;11.31;77.27
10978;BME280;5542;48.272;10.794;2023-05-09T06:47:57;95869.19;;;11.22;77.33
10978;BME280;5542;48.272;10.794;2023-05-09T06:50:23;95866.78;;;11.32;77.22
10978;BME280;5542;48.272;10.794;2023-05-09T06:52:50;95873.31;;;11.29;77.34
10978;BME280;5542;48.272;10.794;2023-05-09T06:55:16;95874.91;;;11.42;77.25
10978;BME280;5542;48.272;10.794;2023-05-09T06:57:44;95871.94;;;11.50;77.97
10978;BME280;5542;48.272;10.794;2023-05-09T07:00:12;95870.44;;;11.90;76.11
10978;BME280;5542;48.272;10.794;2023-05-09T07:02:39;95854.38;;;11.91;75.65
10978;BME280;5542;48.272;10.794;2023-05-09T07:05:06;95863.69;;;11.82;76.79
10978;BME280;5542;48.272;10.794;2023-05-09T07:07:33;95863.84;;;12.04;76.59
10978;BME280;5542;48.272;10.794;2023-05-09T07:10:00;95859.66;;;12.32;74.82
10978;BME280;5542;48.272;10.794;2023-05-09T07:12:29;95867.22;;;12.28;75.66
10978;BME280;5542;48.272;10.794;2023-05-09T07:14:57;95863.25;;;12.42;75.54
10978;BME280;5542;48.272;10.794;2023-05-09T07:17:24;95860.00;;;12.52;75.18
10978;BME280;5542;48.272;10.794;2023-05-09T07:19:51;95851.25;;;12.80;74.36
10978;BME280;5542;48.272;10.794;2023-05-09T07:22:17;95843.34;;;13.14;75.27
10978;BME280;5542;48.272;10.794;2023-05-09T07:24:44;95852.28;;;13.63;72.19
10978;BME280;5542;48.272;10.794;2023-05-09T07:27:10;95842.09;;;14.16;70.88
10978;BME280;5542;48.272;10.794;2023-05-09T07:29:37;95843.13;;;14.64;71.89
10978;BME280;5542;48.272;10.794;2023-05-09T07:32:05;95833.09;;;15.35;71.49
10978;BME280;5542;48.272;10.794;2023-05-09T07:34:31;95824.47;;;16.07;62.38
10978;BME280;5542;48.272;10.794;2023-05-09T07:36:58;95825.31;;;16.23;62.93
10978;BME280;5542;48.272;10.794;2023-05-09T07:39:24;95825.59;;;16.27;62.36
10978;BME280;5542;48.272;10.794;2023-05-09T07:41:51;95819.28;;;16.53;60.83
10978;BME280;5542;48.272;10.794;2023-05-09T07:44:17;95818.75;;;16.61;61.59
10978;BME280;5542;48.272;10.794;2023-05-09T07:46:44;95810.31;;;16.75;62.27
10978;BME280;5542;48.272;10.794;2023-05-09T07:49:12;95807.94;;;16.83;61.77
10978;BME280;5542;48.272;10.794;2023-05-09T07:51:38;95803.41;;;16.94;62.06
10978;BME280;5542;48.272;10.794;2023-05-09T07:54:05;95798.59;;;17.32;57.79
10978;BME280;5542;48.272;10.794;2023-05-09T07:56:34;95800.72;;;17.30;58.89
10978;BME280;5542;48.272;10.794;2023-05-09T07:59:00;95800.75;;;17.09;59.48
10978;BME280;5542;48.272;10.794;2023-05-09T08:01:27;95787.94;;;17.32;57.13
10978;BME280;5542;48.272;10.794;2023-05-09T08:03:54;95795.69;;;17.33;59.33
10978;BME280;5542;48.272;10.794;2023-05-09T08:06:22;95787.66;;;17.54;57.64
10978;BME280;5542;48.272;10.794;2023-05-09T08:08:50;95778.41;;;17.26;59.01
10978;BME280;5542;48.272;10.794;2023-05-09T08:11:17;95775.75;;;17.21;58.29
10978;BME280;5542;48.272;10.794;2023-05-09T08:13:43;95771.22;;;17.31;60.83
10978;BME280;5542;48.272;10.794;2023-05-09T08:16:11;95769.25;;;17.78;63.23
10978;BME280;5542;48.272;10.794;2023-05-09T08:18:37;95759.31;;;17.94;56.25
10978;BME280;5542;48.272;10.794;2023-05-09T08:21:04;95767.41;;;18.28;58.63
10978;BME280;5542;48.272;10.794;2023-05-09T08:23:32;95761.38;;;18.90;55.89
10978;BME280;5542;48.272;10.794;2023-05-09T08:25:59;95760.44;;;19.05;53.38
10978;BME280;5542;48.272;10.794;2023-05-09T08:28:26;95756.03;;;19.19;53.80
10978;BME280;5542;48.272;10.794;2023-05-09T08:30:53;95758.28;;;19.60;52.51
10978;BME280;5542;48.272;10.794;2023-05-09T08:35:49;95742.63;;;19.54;52.42
10978;BME280;5542;48.272;10.794;2023-05-09T08:38:16;95748.50;;;19.27;53.17
10978;BME280;5542;48.272;10.794;2023-05-09T08:40:44;95741.03;;;19.53;53.09
10978;BME280;5542;48.272;10.794;2023-05-09T08:43:11;95732.94;;;19.10;53.36
10978;BME280;5542;48.272;10.794;2023-05-09T08:45:44;95740.47;;;18.34;55.82
10978;BME280;5542;48.272;10.794;2023-05-09T08:48:13;95738.63;;;18.30;57.84
10978;BME280;5542;48.272;10.794;2023-05-09T08:50:40;95725.38;;;18.93;55.90
10978;BME280;5542;48.272;10.794;2023-05-09T08:53:08;95726.56;;;19.35;56.08
10978;BME280;5542;48.272;10.794;2023-05-09T08:55:35;95727.03;;;19.42;54.56
10978;BME280;5542;48.272;10.794;2023-05-09T08:58:03;95722.59;;;19.32;54.01
10978;BME280;5542;48.272;10.794;2023-05-09T09:00:30;95726.78;;;19.38;58.70
10978;BME280;5542;48.272;10.794;2023-05-09T09:03:00;95714.59;;;19.99;53.86
10978;BME280;5542;48.272;10.794;2023-05-09T09:05:29;95716.41;;;20.04;52.54
10978;BME280;5542;48.272;10.794;2023-05-09T09:07:57;95720.94;;;20.03;54.35
10978;BME280;5542;48.272;10.794;2023-05-09T09:10:25;95715.66;;;19.98;53.10
10978;BME280;5542;48.272;10.794;2023-05-09T09:12:56;95717.31;;;20.13;54.27
10978;BME280;5542;48.272;10.794;2023-05-09T09:15:27;95703.94;;;20.18;55.27
10978;BME280;5542;48.272;10.794;2023-05-09T09:17:57;95697.47;;;20.57;53.31
10978;BME280;5542;48.272;10.794;2023-05-09T09:20:26;95698.69;;;20.64;50.85
10978;BME280;5542;48.272;10.794;2023-05-09T09:22:58;95702.09;;;20.70;52.59
10978;BME280;5542;48.272;10.794;2023-05-09T09:25:26;95696.47;;;20.53;52.10
10978;BME280;5542;48.272;10.794;2023-05-09T09:27:53;95688.25;;;20.82;51.56
10978;BME280;5542;48.272;10.794;2023-05-09T09:30:22;95680.56;;;20.94;51.96
10978;BME280;5542;48.272;10.794;2023-05-09T09:32:50;95670.16;;;21.06;49.61
10978;BME280;5542;48.272;10.794;2023-05-09T09:35:17;95670.94;;;20.93;50.17
10978;BME280;5542;48.272;10.794;2023-05-09T09:37:44;95662.19;;;20.74;50.47
10978;BME280;5542;48.272;10.794;2023-05-09T09:40:11;95664.53;;;20.94;49.93
10978;BME280;5542;48.272;10.794;2023-05-09T09:42:41;95662.75;;;21.03;50.64
10978;BME280;5542;48.272;10.794;2023-05-09T09:45:09;95663.22;;;21.05;49.44
10978;BME280;5542;48.272;10.794;2023-05-09T09:47:37;95663.63;;;21.26;50.61
10978;BME280;5542;48.272;10.794;2023-05-09T09:50:10;95658.78;;;21.01;49.85
10978;BME280;5542;48.272;10.794;2023-05-09T09:52:41;95661.41;;;20.87;53.50
10978;BME280;5542;48.272;10.794;2023-05-09T09:55:09;95652.28;;;20.74;50.58
10978;BME280;5542;48.272;10.794;2023-05-09T09:57:37;95655.63;;;20.52;51.39
10978;BME280;5542;48.272;10.794;2023-05-09T10:00:07;95648.66;;;20.18;53.81
10978;BME280;5542;48.272;10.794;2023-05-09T10:02:34;95642.66;;;20.08;52.67
10978;BME280;5542;48.272;10.794;2023-05-09T10:05:08;95647.94;;;19.75;53.96
10978;BME280;5542;48.272;10.794;2023-05-09T10:07:35;95641.66;;;19.66;53.84
10978;BME280;5542;48.272;10.794;2023-05-09T10:10:03;95636.19;;;19.76;55.04
10978;BME280;5542;48.272;10.794;2023-05-09T10:12:32;95626.78;;;19.60;54.68
10978;BME280;5542;48.272;10.794;2023-05-09T10:15:01;95618.44;;;19.66;54.32
10978;BME280;5542;48.272;10.794;2023-05-09T10:17:30;95615.09;;;19.75;56.01
10978;BME280;5542;48.272;10.794;2023-05-09T10:20:01;95609.81;;;20.07;53.45
10978;BME280;5542;48.272;10.794;2023-05-09T10:22:32;95607.75;;;20.04;52.61
10978;BME280;5542;48.272;10.794;2023-05-09T10:25:01;95609.41;;;20.00;53.48
10978;BME280;5542;48.272;10.794;2023-05-09T10:27:30;95604.22;;;19.90;53.38
10978;BME280;5542;48.272;10.794;2023-05-09T10:30:02;95599.75;;;20.04;56.37
10978;BME280;5542;48.272;10.794;2023-05-09T10:32:32;95588.13;;;20.14;51.88
10978;BME280;5542;48.272;10.794;2023-05-09T10:35:05;95587.34;;;20.60;53.34
10978;BME280;5542;48.272;10.794;2023-05-09T10:37:34;95588.78;;;20.85;53.03
10978;BME280;5542;48.272;10.794;2023-05-09T10:40:02;95589.84;;;20.84;50.42
10978;BME280;5542;48.272;10.794;2023-05-09T10:42:29;95581.03;;;20.97;50.01
10978;BME280;5542;48.272;10.794;2023-05-09T10:44:56;95569.25;;;21.12;51.52
10978;BME280;5542;48.272;10.794;2023-05-09T10:47:24;95566.88;;;20.83;49.75
10978;BME280;5542;48.272;10.794;2023-05-09T10:49:52;95564.88;;;20.75;51.41
10978;BME280;5542;48.272;10.794;2023-05-09T10:52:20;95568.56;;;20.79;53.13
10978;BME280;5542;48.272;10.794;2023-05-09T10:54:57;95556.59;;;21.04;51.68
10978;BME280;5542;48.272;10.794;2023-05-09T10:57:25;95549.25;;;21.37;51.98
10978;BME280;5542;48.272;10.794;2023-05-09T10:59:53;95546.69;;;21.32;49.27
10978;BME280;5542;48.272;10.794;2023-05-09T11:02:20;95536.88;;;21.00;49.13
10978;BME280;5542;48.272;10.794;2023-05-09T11:05:15;95530.88;;;20.80;51.04
10978;BME280;5542;48.272;10.794;2023-05-09T11:07:42;95519.66;;;20.78;51.34
10978;BME280;5542;48.272;10.794;2023-05-09T11:10:14;95518.88;;;20.91;50.56
10978;BME280;5542;48.272;10.794;2023-05-09T11:12:55;95517.53;;;21.16;50.46
10978;BME280;5542;48.272;10.794;2023-05-09T11:15:21;95516.16;;;21.33;49.59
10978;BME280;5542;48.272;10.794;2023-05-09T11:17:50;95506.25;;;21.19;49.52
10978;BME280;5542;48.272;10.794;2023-05-09T11:20:17;95516.50;;;20.76;50.59
10978;BME280;5542;48.272;10.794;2023-05-09T11:22:43;95509.66;;;20.84;50.77
10978;BME280;5542;48.272;10.794;2023-05-09T11:25:13;95503.34;;;20.52;50.83
10978;BME280;5542;48.272;10.794;2023-05-09T11:27:42;95508.25;;;20.45;50.93
10978;BME280;5542;48.272;10.794;2023-05-09T11:30:10;95501.72;;;20.37;51.80
10978;BME280;5542;48.272;10.794;2023-05-09T11:32:43;95499.69;;;20.62;52.95
10978;BME280;5542;48.272;10.794;2023-05-09T11:35:12;95486.88;;;21.00;52.03
10978;BME280;5542;48.272;10.794;2023-05-09T11:37:44;95478.53;;;21.15;49.49
10978;BME280;5542;48.272;10.794;2023-05-09T11:40:14;95471.34;;;20.88;49.64
10978;BME280;5542;48.272;10.794;2023-05-09T11:42:42;95468.28;;;20.95;49.69
10978;BME280;5542;48.272;10.794;2023-05-09T11:45:10;95466.16;;;21.06;50.85
10978;BME280;5542;48.272;10.794;2023-05-09T11:47:37;95454.13;;;21.31;48.36
10978;BME280;5542;48.272;10.794;2023-05-09T11:50:06;95445.75;;;21.10;47.25
10978;BME280;5542;48.272;10.794;2023-05-09T11:52:32;95444.81;;;20.92;48.67
10978;BME280;5542;48.272;10.794;2023-05-09T11:54:59;95451.00;;;21.15;49.08
10978;BME280;5542;48.272;10.794;2023-05-09T11:57:27;95444.84;;;21.14;48.18
10978;BME280;5542;48.272;10.794;2023-05-09T11:59:54;95443.69;;;21.07;47.88
10978;BME280;5542;48.272;10.794;2023-05-09T12:02:20;95439.47;;;21.28;47.94
10978;BME280;5542;48.272;10.794;2023-05-09T12:04:48;95437.94;;;21.13;48.21
10978;BME280;5542;48.272;10.794;2023-05-09T12:07:15;95434.47;;;21.13;47.96
10978;BME280;5542;48.272;10.794;2023-05-09T12:09:43;95431.38;;;21.19;47.04
10978;BME280;5542;48.272;10.794;2023-05-09T12:12:10;95425.91;;;21.25;49.57
10978;BME280;5542;48.272;10.794;2023-05-09T12:14:39;95414.88;;;21.40;46.85
10978;BME280;5542;48.272;10.794;2023-05-09T12:17:06;95413.13;;;21.21;46.79
10978;BME280;5542;48.272;10.794;2023-05-09T12:19:32;95426.03;;;21.19;47.99
10978;BME280;5542;48.272;10.794;2023-05-09T12:22:00;95411.91;;;21.05;46.36
10978;BME280;5542;48.272;10.794;2023-05-09T12:24:29;95403.94;;;20.91;46.85
10978;BME280;5542;48.272;10.794;2023-05-09T12:26:57;95400.34;;;20.96;47.55
10978;BME280;5542;48.272;10.794;2023-05-09T12:29:24;95393.56;;;21.12;49.10
10978;BME280;5542;48.272;10.794;2023-05-09T12:31:54;95390.72;;;21.54;47.80
10978;BME280;5542;48.272;10.794;2023-05-09T12:34:20;95386.28;;;21.49;47.14
10978;BME280;5542;48.272;10.794;2023-05-09T12:36:48;95383.50;;;21.54;47.36
10978;BME280;5542;48.272;10.794;2023-05-09T12:39:16;95384.59;;;21.31;48.08
10978;BME280;5542;48.272;10.794;2023-05-09T12:41:46;95376.13;;;21.15;47.75
10978;BME280;5542;48.272;10.794;2023-05-09T12:44:20;95372.72;;;21.23;48.18
10978;BME280;5542;48.272;10.794;2023-05-09T12:46:59;95361.41;;;21.26;46.34
10978;BME280;5542;48.272;10.794;2023-05-09T12:49:27;95359.88;;;21.11;47.29
10978;BME280;5542;48.272;10.794;2023-05-09T12:51:58;95359.53;;;21.04;47.41
10978;BME280;5542;48.272;10.794;2023-05-09T12:54:26;95353.94;;;21.14;45.48
10978;BME280;5542;48.272;10.794;2023-05-09T12:56:54;95344.47;;;21.53;44.15
10978;BME280;5542;48.272;10.794;2023-05-09T12:59:22;95341.56;;;21.72;47.35
10978;BME280;5542;48.272;10.794;2023-05-09T13:01:53;95352.00;;;21.51;47.48
10978;BME280;5542;48.272;10.794;2023-05-09T13:04:23;95338.53;;;21.34;47.23
10978;BME280;5542;48.272;10.794;2023-05-09T13:06:52;95340.69;;;21.54;47.91